createdAt,value
2018-11-27T00:01:36.004Z,16.60
2018-11-27T00:04:06.388Z,10.17
2018-11-27T00:06:35.966Z,10.77
2018-11-27T00:09:07.543Z,13.17
2018-11-27T00:11:37.019Z,10.00
2018-11-27T00:14:06.728Z,10.07
2018-11-27T00:16:36.465Z,14.37
2018-11-27T00:19:06.369Z,9.93
2018-11-27T00:21:35.937Z,14.37
2018-11-27T00:24:06.091Z,13.73
2018-11-27T00:26:35.711Z,11.00
2018-11-27T00:29:05.425Z,11.03
2018-11-27T00:31:34.892Z,9.57
2018-11-27T00:34:04.431Z,8.50
2018-11-27T00:36:34.027Z,16.30
2018-11-27T00:39:03.938Z,9.97
2018-11-27T00:41:33.585Z,11.63
2018-11-27T00:44:03.661Z,15.70
2018-11-27T00:46:33.105Z,8.90
2018-11-27T00:49:02.548Z,14.33
2018-11-27T00:51:32.010Z,15.23
2018-11-27T00:54:01.493Z,14.67
2018-11-27T00:56:30.945Z,10.47
2018-11-27T00:59:00.597Z,17.20
2018-11-27T01:01:30.104Z,10.83
2018-11-27T01:03:59.740Z,14.40
2018-11-27T01:06:29.318Z,12.10
2018-11-27T01:08:58.805Z,14.90
2018-11-27T01:11:28.253Z,12.43
2018-11-27T01:13:58.021Z,14.63
2018-11-27T01:16:27.480Z,15.30
2018-11-27T01:18:56.952Z,16.40
2018-11-27T01:21:32.815Z,12.27
2018-11-27T01:24:02.786Z,17.60
2018-11-27T01:26:32.372Z,13.53
2018-11-27T01:29:01.853Z,19.37
2018-11-27T01:31:31.425Z,17.87
2018-11-27T01:34:00.875Z,14.87
2018-11-27T01:36:30.343Z,13.63
2018-11-27T01:38:59.916Z,12.27
2018-11-27T01:41:29.402Z,17.07
2018-11-27T01:43:58.966Z,11.70
2018-11-27T01:46:28.427Z,14.50
2018-11-27T01:48:57.933Z,13.60
2018-11-27T01:51:27.483Z,16.40
2018-11-27T01:53:56.979Z,12.37
2018-11-27T01:56:26.416Z,16.00
2018-11-27T01:58:55.845Z,14.90
2018-11-27T02:01:25.294Z,19.83
2018-11-27T02:03:54.764Z,14.10
2018-11-27T02:06:24.306Z,15.70
2018-11-27T02:08:54.589Z,12.23
2018-11-27T02:11:24.046Z,13.20
2018-11-27T02:13:54.220Z,15.73
2018-11-27T02:16:23.676Z,12.27
2018-11-27T02:18:53.295Z,13.30
2018-11-27T02:21:22.731Z,12.80
2018-11-27T02:23:52.338Z,14.37
2018-11-27T02:26:21.799Z,19.33
2018-11-27T02:28:51.272Z,12.80
2018-11-27T02:31:20.720Z,15.50
2018-11-27T02:33:50.168Z,16.50
2018-11-27T02:36:19.593Z,11.50
2018-11-27T02:38:49.240Z,15.53
2018-11-27T02:41:18.714Z,14.97
2018-11-27T02:43:48.289Z,16.60
2018-11-27T02:46:17.766Z,15.17
2018-11-27T02:48:47.209Z,12.83
2018-11-27T02:51:16.694Z,16.53
2018-11-27T02:53:46.248Z,15.60
2018-11-27T02:56:22.403Z,16.17
2018-11-27T02:58:52.011Z,10.30
2018-11-27T03:01:21.455Z,16.60
2018-11-27T03:03:50.923Z,11.63
2018-11-27T03:06:20.545Z,18.00
2018-11-27T03:08:50.032Z,19.60
2018-11-27T03:11:19.759Z,14.13
2018-11-27T03:13:49.233Z,12.87
2018-11-27T03:16:18.911Z,17.80
2018-11-27T03:18:48.377Z,15.40
2018-11-27T03:21:17.988Z,16.77
2018-11-27T03:23:47.576Z,14.80
2018-11-27T03:26:17.083Z,17.30
2018-11-27T03:28:46.580Z,16.93
2018-11-27T03:31:16.033Z,16.20
2018-11-27T03:33:45.745Z,24.73
2018-11-27T03:36:15.192Z,11.57
2018-11-27T03:38:44.627Z,15.27
2018-11-27T03:41:14.130Z,10.10
2018-11-27T03:43:43.622Z,16.93
2018-11-27T03:46:13.110Z,12.23
2018-11-27T03:48:42.647Z,13.30
2018-11-27T03:51:12.350Z,12.13
2018-11-27T03:53:41.829Z,14.70
2018-11-27T03:56:11.542Z,12.10
2018-11-27T03:58:40.976Z,10.97
2018-11-27T04:01:10.431Z,10.30
2018-11-27T04:03:39.982Z,16.27
2018-11-27T04:06:09.613Z,11.90
2018-11-27T04:08:39.663Z,12.30
2018-11-27T04:11:09.210Z,13.20
2018-11-27T04:13:38.839Z,12.83
2018-11-27T04:16:08.291Z,14.10
2018-11-27T04:18:37.906Z,18.57
2018-11-27T04:21:07.501Z,14.40
2018-11-27T04:23:37.000Z,10.57
2018-11-27T04:26:06.690Z,18.30
2018-11-27T04:28:36.181Z,13.73
2018-11-27T04:31:05.781Z,17.20
2018-11-27T04:33:35.378Z,14.50
2018-11-27T04:36:05.494Z,11.43
2018-11-27T04:38:34.983Z,11.73
2018-11-27T04:41:05.202Z,12.70
2018-11-27T04:43:34.769Z,15.63
2018-11-27T04:46:04.333Z,18.13
2018-11-27T04:48:33.819Z,22.77
2018-11-27T04:51:04.251Z,10.90
2018-11-27T04:53:33.770Z,9.23
2018-11-27T04:56:03.637Z,9.93
2018-11-27T04:58:33.115Z,15.37
2018-11-27T05:01:02.687Z,16.53
2018-11-27T05:03:32.137Z,14.37
2018-11-27T05:06:01.626Z,15.77
2018-11-27T05:08:31.212Z,13.00
2018-11-27T05:11:00.681Z,18.73
2018-11-27T05:13:30.140Z,7.87
2018-11-27T05:15:59.651Z,13.57
2018-11-27T05:18:29.359Z,17.33
2018-11-27T05:20:59.649Z,19.30
2018-11-27T05:23:29.226Z,13.33
2018-11-27T05:25:58.749Z,16.90
2018-11-27T05:28:28.299Z,12.00
2018-11-27T05:30:57.895Z,16.67
2018-11-27T05:33:27.427Z,14.60
2018-11-27T05:35:57.119Z,15.03
2018-11-27T05:38:26.723Z,19.97
2018-11-27T05:40:56.993Z,15.47
2018-11-27T05:43:26.483Z,20.30
2018-11-27T05:45:55.949Z,13.30
2018-11-27T05:48:25.467Z,21.17
2018-11-27T05:50:55.554Z,14.23
2018-11-27T05:53:25.139Z,13.93
2018-11-27T05:55:54.674Z,14.93
2018-11-27T05:58:24.218Z,17.37
2018-11-27T06:00:53.698Z,16.93
2018-11-27T06:03:23.387Z,13.87
2018-11-27T06:05:52.917Z,15.90
2018-11-27T06:08:22.366Z,14.40
2018-11-27T06:10:53.080Z,20.70
2018-11-27T06:13:23.208Z,15.63
2018-11-27T06:15:52.650Z,27.40
2018-11-27T06:18:22.155Z,18.73
2018-11-27T06:20:51.773Z,16.30
2018-11-27T06:23:21.353Z,16.73
2018-11-27T06:25:50.856Z,23.67
2018-11-27T06:28:20.512Z,12.33
2018-11-27T06:30:50.043Z,19.83
2018-11-27T06:33:19.612Z,23.23
2018-11-27T06:35:49.099Z,25.20
2018-11-27T06:38:18.688Z,16.80
2018-11-27T06:40:48.425Z,25.90
2018-11-27T06:43:17.922Z,13.87
2018-11-27T06:45:47.384Z,20.33
2018-11-27T06:48:17.024Z,17.20
2018-11-27T06:50:46.474Z,19.20
2018-11-27T06:53:15.926Z,18.90
2018-11-27T06:55:45.473Z,22.30
2018-11-27T06:58:14.935Z,21.37
2018-11-27T07:00:44.493Z,16.83
2018-11-27T07:03:14.980Z,16.70
2018-11-27T07:05:44.430Z,22.63
2018-11-27T07:08:13.931Z,18.77
2018-11-27T07:10:45.466Z,18.07
2018-11-27T07:13:20.520Z,20.33
2018-11-27T07:15:51.280Z,15.77
2018-11-27T07:18:20.760Z,21.00
2018-11-27T07:20:50.259Z,15.83
2018-11-27T07:23:19.807Z,19.60
2018-11-27T07:25:49.246Z,19.47
2018-11-27T07:28:18.762Z,14.83
2018-11-27T07:30:48.221Z,20.73
2018-11-27T07:33:17.662Z,19.00
2018-11-27T07:35:47.124Z,17.80
2018-11-27T07:38:16.630Z,20.03
2018-11-27T07:40:46.117Z,21.13
2018-11-27T07:43:15.616Z,18.10
2018-11-27T07:45:45.196Z,22.33
2018-11-27T07:48:14.767Z,18.93
2018-11-27T07:50:44.459Z,19.87
2018-11-27T07:53:14.162Z,16.90
2018-11-27T07:55:43.730Z,18.37
2018-11-27T07:58:13.353Z,17.80
2018-11-27T08:00:42.961Z,14.53
2018-11-27T08:03:12.427Z,20.33
2018-11-27T08:05:42.756Z,18.13
2018-11-27T08:08:14.932Z,20.27
2018-11-27T08:10:46.031Z,20.13
2018-11-27T08:13:15.532Z,19.20
2018-11-27T08:15:45.274Z,24.70
2018-11-27T08:18:14.958Z,17.50
2018-11-27T08:20:44.521Z,25.70
2018-11-27T08:23:14.189Z,26.90
2018-11-27T08:25:43.748Z,22.27
2018-11-27T08:28:13.262Z,23.63
2018-11-27T08:30:43.495Z,20.43
2018-11-27T08:33:12.674Z,25.47
2018-11-27T08:35:42.165Z,24.57
2018-11-27T08:38:11.636Z,25.67
2018-11-27T08:40:41.201Z,19.80
2018-11-27T08:43:10.668Z,24.60
2018-11-27T08:45:40.144Z,24.37
2018-11-27T08:48:09.680Z,24.73
2018-11-27T08:50:39.103Z,24.90
2018-11-27T08:53:08.954Z,21.40
2018-11-27T08:55:42.366Z,18.23
2018-11-27T08:58:20.040Z,19.43
2018-11-27T09:00:49.742Z,25.87
2018-11-27T09:03:19.312Z,19.13
2018-11-27T09:05:48.958Z,22.83
2018-11-27T09:08:19.275Z,21.90
2018-11-27T09:10:48.777Z,19.57
2018-11-27T09:13:18.298Z,25.37
2018-11-27T09:15:47.796Z,20.63
2018-11-27T09:18:19.619Z,23.50
2018-11-27T09:20:49.070Z,16.57
2018-11-27T09:23:18.592Z,22.23
2018-11-27T09:25:48.015Z,18.60
2018-11-27T09:28:17.633Z,25.40
2018-11-27T09:30:47.133Z,15.60
2018-11-27T09:33:16.893Z,20.83
2018-11-27T09:35:46.394Z,22.63
2018-11-27T09:38:15.838Z,16.53
2018-11-27T09:40:45.515Z,19.97
2018-11-27T09:43:15.105Z,14.93
2018-11-27T09:45:46.032Z,19.83
2018-11-27T09:48:15.462Z,12.90
2018-11-27T09:50:44.953Z,12.73
2018-11-27T09:53:16.111Z,18.10
2018-11-27T09:55:45.652Z,18.20
2018-11-27T09:58:15.142Z,14.70
2018-11-27T10:00:44.755Z,13.97
2018-11-27T10:03:16.273Z,17.33
2018-11-27T10:05:45.761Z,18.20
2018-11-27T10:08:15.263Z,12.80
2018-11-27T10:10:44.789Z,16.50
2018-11-27T10:13:14.279Z,13.37
2018-11-27T10:15:43.815Z,17.57
2018-11-27T10:18:13.290Z,15.37
2018-11-27T10:20:43.843Z,17.60
2018-11-27T10:23:17.850Z,50.47
2018-11-27T10:25:47.323Z,16.30
2018-11-27T10:28:16.882Z,16.20
2018-11-27T10:30:46.366Z,20.00
2018-11-27T10:33:15.861Z,21.23
2018-11-27T10:35:50.621Z,15.53
2018-11-27T10:38:20.109Z,15.80
2018-11-27T10:40:49.717Z,15.33
2018-11-27T10:43:19.919Z,19.20
2018-11-27T10:45:48.840Z,15.77
2018-11-27T10:48:18.313Z,19.37
2018-11-27T10:50:47.869Z,18.37
2018-11-27T10:53:17.336Z,20.17
2018-11-27T10:55:46.840Z,21.40
2018-11-27T10:58:16.624Z,26.93
2018-11-27T11:00:51.480Z,17.60
2018-11-27T11:03:25.606Z,16.10
2018-11-27T11:05:56.485Z,18.90
2018-11-27T11:08:26.066Z,13.77
2018-11-27T11:10:55.645Z,19.93
2018-11-27T11:13:25.131Z,14.23
2018-11-27T11:15:54.638Z,13.90
2018-11-27T11:18:24.173Z,22.00
2018-11-27T11:20:53.652Z,22.00
2018-11-27T11:23:23.210Z,17.80
2018-11-27T11:25:52.719Z,18.20
2018-11-27T11:28:25.261Z,18.77
2018-11-27T11:30:54.717Z,18.90
2018-11-27T11:33:24.190Z,18.97
2018-11-27T11:35:53.673Z,26.47
2018-11-27T11:38:23.106Z,21.60
2018-11-27T11:40:53.376Z,27.87
2018-11-27T11:43:23.011Z,18.17
2018-11-27T11:45:52.461Z,29.40
2018-11-27T11:48:22.017Z,22.63
2018-11-27T11:50:51.499Z,23.77
2018-11-27T11:53:21.276Z,20.87
2018-11-27T11:55:50.899Z,20.20
2018-11-27T11:58:20.445Z,17.40
2018-11-27T12:00:52.769Z,18.67
2018-11-27T12:03:22.245Z,19.63
2018-11-27T12:05:51.831Z,18.77
2018-11-27T12:08:21.349Z,18.80
2018-11-27T12:10:50.822Z,22.93
2018-11-27T12:13:20.487Z,24.10
2018-11-27T12:15:50.082Z,21.97
2018-11-27T12:18:19.536Z,22.27
2018-11-27T12:20:49.079Z,20.03
2018-11-27T12:23:18.566Z,18.43
2018-11-27T12:25:48.363Z,21.90
2018-11-27T12:28:17.899Z,18.40
2018-11-27T12:30:47.495Z,20.37
2018-11-27T12:33:16.989Z,24.93
2018-11-27T12:35:46.419Z,25.70
2018-11-27T12:38:16.010Z,22.27
2018-11-27T12:40:45.495Z,19.93
2018-11-27T12:43:15.085Z,21.87
2018-11-27T12:45:44.571Z,19.97
2018-11-27T12:48:14.024Z,18.10
2018-11-27T12:50:47.547Z,17.10
2018-11-27T12:53:18.525Z,20.87
2018-11-27T12:55:49.990Z,21.10
2018-11-27T12:58:19.611Z,16.03
2018-11-27T13:00:49.152Z,22.40
2018-11-27T13:03:18.740Z,19.40
2018-11-27T13:05:48.572Z,19.60
2018-11-27T13:08:21.981Z,16.97
2018-11-27T13:10:51.598Z,17.10
2018-11-27T13:13:21.094Z,20.27
2018-11-27T13:15:50.590Z,16.87
2018-11-27T13:18:20.166Z,17.60
2018-11-27T13:20:49.671Z,20.87
2018-11-27T13:23:19.131Z,21.17
2018-11-27T13:25:48.797Z,18.70
2018-11-27T13:28:18.311Z,14.70
2018-11-27T13:30:56.209Z,16.43
2018-11-27T13:33:31.976Z,25.00
2018-11-27T13:36:01.747Z,21.50
2018-11-27T13:38:31.218Z,21.13
2018-11-27T13:41:00.968Z,17.57
2018-11-27T13:43:31.116Z,20.23
2018-11-27T13:46:01.925Z,20.67
2018-11-27T13:48:31.551Z,22.80
2018-11-27T13:51:01.062Z,20.87
2018-11-27T13:53:30.672Z,18.10
2018-11-27T13:56:00.124Z,16.10
2018-11-27T13:58:29.703Z,16.37
2018-11-27T14:00:59.157Z,21.57
2018-11-27T14:03:28.648Z,22.43
2018-11-27T14:05:58.287Z,16.87
2018-11-27T14:08:27.765Z,13.70
2018-11-27T14:10:57.292Z,17.80
2018-11-27T14:13:26.789Z,19.13
2018-11-27T14:15:56.435Z,15.70
2018-11-27T14:18:25.889Z,17.70
2018-11-27T14:20:55.351Z,23.77
2018-11-27T14:23:24.884Z,21.97
2018-11-27T14:25:54.426Z,20.00
2018-11-27T14:28:23.912Z,17.50
2018-11-27T14:30:53.463Z,23.87
2018-11-27T14:33:23.089Z,24.30
2018-11-27T14:35:52.604Z,20.77
2018-11-27T14:38:22.231Z,18.57
2018-11-27T14:40:51.738Z,21.90
2018-11-27T14:43:21.288Z,24.60
2018-11-27T14:45:50.721Z,19.27
2018-11-27T14:48:20.467Z,16.33
2018-11-27T14:50:49.952Z,21.17
2018-11-27T14:53:19.523Z,24.07
2018-11-27T14:55:49.175Z,22.30
2018-11-27T14:58:18.633Z,24.30
2018-11-27T15:00:48.349Z,24.03
2018-11-27T15:03:18.023Z,23.70
2018-11-27T15:05:47.521Z,24.50
2018-11-27T15:08:17.264Z,22.13
2018-11-27T15:10:46.812Z,22.33
2018-11-27T15:13:16.283Z,22.37
2018-11-27T15:15:45.882Z,27.40
2018-11-27T15:18:15.604Z,30.33
2018-11-27T15:20:45.289Z,20.43
2018-11-27T15:23:15.044Z,24.97
2018-11-27T15:25:44.608Z,25.63
2018-11-27T15:28:14.113Z,16.93
2018-11-27T15:30:43.709Z,26.13
2018-11-27T15:33:18.512Z,25.10
2018-11-27T15:35:43.005Z,22.43
2018-11-27T15:38:12.496Z,27.10
2018-11-27T15:40:42.294Z,25.43
2018-11-27T15:43:13.068Z,22.00
2018-11-27T15:45:41.470Z,27.03
2018-11-27T15:48:11.089Z,20.20
2018-11-27T15:50:40.581Z,17.33
2018-11-27T15:53:10.058Z,22.23
2018-11-27T15:55:40.863Z,29.37
2018-11-27T15:58:13.969Z,35.13
2018-11-27T16:00:44.732Z,22.00
2018-11-27T16:03:14.279Z,22.50
2018-11-27T16:05:44.623Z,28.17
2018-11-27T16:08:15.156Z,17.40
2018-11-27T16:10:44.766Z,25.63
2018-11-27T16:13:14.352Z,19.73
2018-11-27T16:15:43.931Z,27.53
2018-11-27T16:18:13.438Z,20.80
2018-11-27T16:20:42.935Z,12.33
2018-11-27T16:23:12.673Z,22.87
2018-11-27T16:25:42.160Z,20.70
2018-11-27T16:28:11.643Z,20.07
2018-11-27T16:30:41.253Z,19.07
2018-11-27T16:33:10.786Z,18.90
2018-11-27T16:35:40.282Z,19.13
2018-11-27T16:38:09.810Z,13.73
2018-11-27T16:40:40.319Z,19.53
2018-11-27T16:43:10.051Z,28.00
2018-11-27T16:45:39.741Z,19.27
2018-11-27T16:48:09.249Z,28.43
2018-11-27T16:50:38.898Z,17.53
2018-11-27T16:53:08.662Z,20.77
2018-11-27T16:55:38.142Z,25.30
2018-11-27T16:58:07.671Z,22.50
2018-11-27T17:00:37.376Z,25.83
2018-11-27T17:03:08.616Z,22.20
2018-11-27T17:05:44.196Z,16.83
2018-11-27T17:08:13.898Z,18.37
2018-11-27T17:10:45.156Z,20.60
2018-11-27T17:13:15.992Z,19.50
2018-11-27T17:15:45.706Z,26.30
2018-11-27T17:18:15.351Z,20.13
2018-11-27T17:20:46.428Z,23.30
2018-11-27T17:23:17.705Z,22.27
2018-11-27T17:25:47.340Z,97.33
2018-11-27T17:28:20.422Z,71.27
2018-11-27T17:31:06.764Z,21.70
2018-11-27T17:33:41.374Z,28.47
2018-11-27T17:36:11.478Z,19.93
2018-11-27T17:38:40.991Z,15.70
2018-11-27T17:41:11.016Z,18.80
2018-11-27T17:43:41.104Z,32.97
2018-11-27T17:46:10.643Z,35.90
2018-11-27T17:48:40.180Z,46.00
2018-11-27T17:51:10.370Z,46.83
2018-11-27T17:53:40.110Z,48.43
2018-11-27T17:56:09.619Z,52.50
2018-11-27T17:58:39.069Z,93.17
2018-11-27T18:01:09.895Z,107.27
2018-11-27T18:03:38.226Z,87.37
2018-11-27T18:06:07.730Z,50.60
2018-11-27T18:08:37.333Z,50.47
2018-11-27T18:11:07.351Z,48.57
2018-11-27T18:13:37.199Z,61.37
2018-11-27T18:16:07.109Z,53.50
2018-11-27T18:18:36.775Z,40.27
2018-11-27T18:21:06.733Z,41.13
2018-11-27T18:23:36.292Z,46.17
2018-11-27T18:26:06.276Z,46.73
2018-11-27T18:28:35.874Z,52.33
2018-11-27T18:31:06.163Z,48.77
2018-11-27T18:33:35.939Z,54.30
2018-11-27T18:36:05.652Z,51.00
2018-11-27T18:38:35.223Z,45.03
2018-11-27T18:41:05.003Z,43.43
2018-11-27T18:43:34.592Z,49.80
2018-11-27T18:46:04.138Z,48.67
2018-11-27T18:48:33.655Z,49.83
2018-11-27T18:51:03.231Z,46.97
2018-11-27T18:53:32.992Z,36.70
2018-11-27T18:56:02.654Z,48.23
2018-11-27T18:58:32.214Z,41.47
2018-11-27T19:01:01.877Z,38.67
2018-11-27T19:03:31.680Z,36.30
2018-11-27T19:06:01.431Z,53.93
2018-11-27T19:08:30.961Z,41.57
2018-11-27T19:11:00.635Z,47.77
2018-11-27T19:13:30.148Z,40.97
2018-11-27T19:16:00.285Z,35.37
2018-11-27T19:18:29.957Z,39.07
2018-11-27T19:20:59.887Z,39.33
2018-11-27T19:23:29.548Z,41.30
2018-11-27T19:25:59.198Z,40.23
2018-11-27T19:28:28.806Z,42.27
2018-11-27T19:30:58.435Z,35.00
2018-11-27T19:33:28.187Z,50.17
2018-11-27T19:35:57.735Z,38.70
2018-11-27T19:38:27.396Z,39.73
2018-11-27T19:40:57.236Z,39.30
2018-11-27T19:43:27.151Z,44.93
2018-11-27T19:45:56.930Z,41.13
2018-11-27T19:48:26.710Z,49.00
2018-11-27T19:50:57.303Z,44.87
2018-11-27T19:53:27.051Z,35.40
2018-11-27T19:55:56.910Z,45.90
2018-11-27T19:58:26.773Z,35.23
2018-11-27T20:00:56.461Z,40.20
2018-11-27T20:03:26.079Z,39.50
2018-11-27T20:05:55.678Z,40.00
2018-11-27T20:08:25.286Z,41.83
2018-11-27T20:10:54.939Z,40.97
2018-11-27T20:13:24.816Z,34.17
2018-11-27T20:15:54.546Z,40.90
2018-11-27T20:18:24.453Z,43.00
2018-11-27T20:20:54.175Z,23.10
2018-11-27T20:23:23.823Z,36.13
2018-11-27T20:25:53.473Z,36.00
2018-11-27T20:28:23.111Z,50.37
2018-11-27T20:30:52.700Z,34.03
2018-11-27T20:33:22.371Z,41.50
2018-11-27T20:35:52.149Z,41.10
2018-11-27T20:38:21.857Z,30.13
2018-11-27T20:40:51.978Z,41.95
2018-11-27T20:43:21.542Z,36.73
2018-11-27T20:45:51.233Z,43.50
2018-11-27T20:48:21.161Z,31.80
2018-11-27T20:50:52.456Z,42.27
2018-11-27T20:53:22.083Z,32.30
2018-11-27T20:55:52.353Z,39.13
2018-11-27T20:58:22.055Z,43.80
2018-11-27T21:00:53.126Z,28.43
2018-11-27T21:03:22.907Z,40.73
2018-11-27T21:05:52.566Z,42.17
2018-11-27T21:08:22.137Z,29.47
2018-11-27T21:10:51.691Z,43.93
2018-11-27T21:13:21.253Z,33.33
2018-11-27T21:15:50.785Z,26.63
2018-11-27T21:18:20.354Z,36.53
2018-11-27T21:20:49.986Z,33.90
2018-11-27T21:23:19.552Z,28.43
2018-11-27T21:25:49.112Z,32.10
2018-11-27T21:28:20.013Z,36.33
2018-11-27T21:30:51.947Z,33.50
2018-11-27T21:33:21.489Z,31.10
2018-11-27T21:35:51.189Z,33.63
2018-11-27T21:38:20.803Z,29.00
2018-11-27T21:40:50.451Z,35.83
2018-11-27T21:43:19.981Z,33.50
2018-11-27T21:45:49.625Z,33.20
2018-11-27T21:48:19.203Z,35.27
2018-11-27T21:50:48.740Z,38.63
2018-11-27T21:53:18.353Z,32.00
2018-11-27T21:55:47.914Z,32.83
2018-11-27T21:58:17.549Z,30.97
2018-11-27T22:00:47.790Z,33.83
2018-11-27T22:03:20.527Z,33.17
2018-11-27T22:05:50.072Z,30.67
2018-11-27T22:08:19.678Z,30.13
2018-11-27T22:10:49.162Z,32.33
2018-11-27T22:13:18.660Z,36.53
2018-11-27T22:15:48.137Z,31.80
2018-11-27T22:18:17.894Z,27.67
2018-11-27T22:20:47.389Z,37.83
2018-11-27T22:23:16.896Z,41.23
2018-11-27T22:25:46.630Z,39.60
2018-11-27T22:28:16.128Z,37.23
2018-11-27T22:30:45.713Z,29.33
2018-11-27T22:33:15.325Z,32.80
2018-11-27T22:35:51.442Z,34.53
2018-11-27T22:38:22.072Z,32.20
2018-11-27T22:40:51.613Z,36.03
2018-11-27T22:43:21.204Z,31.87
2018-11-27T22:45:50.690Z,35.20
2018-11-27T22:48:20.261Z,41.83
2018-11-27T22:50:49.776Z,26.70
2018-11-27T22:53:19.354Z,42.43
2018-11-27T22:55:48.859Z,31.77
2018-11-27T22:58:18.492Z,41.83
2018-11-27T23:00:50.047Z,33.90
2018-11-27T23:03:20.487Z,38.50
2018-11-27T23:05:50.076Z,33.43
2018-11-27T23:08:19.584Z,33.60
2018-11-27T23:10:50.036Z,45.50
2018-11-27T23:13:19.707Z,29.63
2018-11-27T23:15:49.183Z,32.87
2018-11-27T23:18:18.689Z,33.57
2018-11-27T23:20:48.252Z,34.60
2018-11-27T23:23:17.846Z,29.30
2018-11-27T23:25:47.353Z,33.90
2018-11-27T23:28:16.904Z,42.23
2018-11-27T23:30:46.641Z,28.43
2018-11-27T23:33:16.165Z,35.20
2018-11-27T23:35:45.627Z,27.13
2018-11-27T23:38:15.181Z,38.60
2018-11-27T23:40:44.889Z,39.33
2018-11-27T23:43:14.498Z,26.97
2018-11-27T23:45:43.979Z,42.53
2018-11-27T23:48:13.683Z,27.50
2018-11-27T23:50:43.479Z,31.40
2018-11-27T23:53:13.151Z,33.50
2018-11-27T23:55:42.939Z,29.00
2018-11-27T23:58:12.534Z,34.70
